Time;durP1;ratioP1;P1;durP2;ratioP2;P2;SDS_P1;SDS_P2;PMS_P1;PMS_P2;Temp;Humidity;BMP_temperature;BMP_pressure;BME280_temperature;BME280_humidity;BME280_pressure;Samples;Min_cycle;Max_cycle;Signal;HPM_P1;HPM_P2
2023/05/24 00:00:16;;;;;;;4.10;3.70;;;14.20;99.90;;;;;;6004420;23;20478;-77
2023/05/24 00:02:43;;;;;;;4.53;4.10;;;14.20;99.90;;;;;;5988363;23;20556;-77
2023/05/24 00:05:10;;;;;;;4.00;3.70;;;14.20;99.90;;;;;;6001332;23;20433;-77
2023/05/24 00:07:37;;;;;;;3.70;3.40;;;14.20;99.90;;;;;;6000069;23;20522;-77
2023/05/24 00:10:05;;;;;;;4.60;3.80;;;14.20;99.90;;;;;;6001070;23;20846;-77
2023/05/24 00:12:33;;;;;;;3.70;3.40;;;14.20;99.90;;;;;;6002430;23;21273;-77
2023/05/24 00:15:01;;;;;;;4.40;3.70;;;14.20;99.90;;;;;;6004303;23;20450;-77
2023/05/24 00:17:29;;;;;;;4.00;3.67;;;14.20;99.90;;;;;;5996414;23;20527;-77
2023/05/24 00:19:56;;;;;;;4.50;4.10;;;14.20;99.90;;;;;;5999243;23;20443;-77
2023/05/24 00:22:23;;;;;;;4.17;3.67;;;14.20;99.90;;;;;;6001237;23;20988;-77
2023/05/24 00:24:51;;;;;;;5.83;3.40;;;14.20;99.90;;;;;;5991523;23;21027;-77
2023/05/24 00:27:18;;;;;;;3.93;3.60;;;14.20;99.90;;;;;;5989943;23;20476;-77
2023/05/24 00:29:45;;;;;;;3.93;3.53;;;14.30;99.90;;;;;;5996225;23;20437;-77
2023/05/24 00:32:13;;;;;;;4.13;3.73;;;14.30;99.90;;;;;;6000816;23;20468;-77
2023/05/24 00:34:40;;;;;;;4.77;3.93;;;14.30;99.90;;;;;;6001761;23;20526;-77
2023/05/24 00:37:08;;;;;;;4.70;3.73;;;14.30;99.90;;;;;;6000874;23;20562;-77
2023/05/24 00:39:35;;;;;;;3.87;3.47;;;14.30;99.90;;;;;;6002997;23;20479;-77
2023/05/24 00:42:02;;;;;;;4.10;3.50;;;14.30;99.90;;;;;;5998435;23;20539;-77
2023/05/24 00:44:29;;;;;;;3.83;3.53;;;14.30;99.90;;;;;;5991679;23;20431;-77
2023/05/24 00:46:57;;;;;;;4.50;3.67;;;14.30;99.90;;;;;;6003108;23;20458;-77
2023/05/24 00:49:25;;;;;;;4.40;4.00;;;14.30;99.90;;;;;;6004494;23;20516;-77
2023/05/24 00:51:53;;;;;;;3.73;3.33;;;14.30;99.90;;;;;;5995646;23;20531;-78
2023/05/24 00:54:21;;;;;;;4.37;3.57;;;14.20;99.90;;;;;;5999587;23;20429;-76
2023/05/24 00:56:48;;;;;;;4.80;3.80;;;14.30;99.90;;;;;;6001624;23;20493;-76
2023/05/24 00:59:15;;;;;;;4.10;3.70;;;14.20;99.90;;;;;;6002724;23;20889;-76
2023/05/24 01:01:45;;;;;;;3.47;3.13;;;14.10;99.90;;;;;;6002867;23;20587;-76
2023/05/24 01:04:13;;;;;;;3.83;3.40;;;14.10;99.90;;;;;;5993718;23;20502;-76
2023/05/24 01:06:52;;;;;;;3.73;3.33;;;14.10;99.90;;;;;;6002908;23;20437;-76
2023/05/24 01:09:28;;;;;;;7.30;3.93;;;14.00;99.90;;;;;;5988214;23;20444;-76
2023/05/24 01:12:05;;;;;;;6.60;4.03;;;14.00;99.90;;;;;;5999733;23;20542;-76
2023/05/24 01:14:41;;;;;;;5.10;3.60;;;14.00;99.90;;;;;;5982713;23;20526;-75
2023/05/24 01:17:17;;;;;;;5.37;3.63;;;13.90;99.90;;;;;;6001369;23;20485;-76
2023/05/24 01:19:51;;;;;;;3.97;3.40;;;13.90;99.90;;;;;;6001089;23;20451;-76
2023/05/24 01:22:53;;;;;;;4.97;4.07;;;13.80;99.90;;;;;;6003723;23;20493;-76
2023/05/24 01:25:40;;;;;;;6.00;3.83;;;13.80;99.90;;;;;;5923997;23;20937;-76
2023/05/24 01:28:11;;;;;;;5.17;4.10;;;13.70;99.90;;;;;;6002102;23;20437;-76
2023/05/24 01:30:40;;;;;;;8.13;3.27;;;13.70;99.90;;;;;;5992378;23;21245;-76
2023/05/24 01:33:07;;;;;;;6.30;3.50;;;14.00;99.90;;;;;;6002501;23;20514;-76
2023/05/24 01:35:38;;;;;;;6.63;3.80;;;13.70;99.90;;;;;;5999274;23;20531;-76
2023/05/24 01:38:06;;;;;;;6.37;3.77;;;13.70;99.90;;;;;;6002842;23;20525;-76
2023/05/24 01:40:33;;;;;;;7.70;4.07;;;13.60;99.90;;;;;;5995492;23;22067;-76
2023/05/24 01:43:14;;;;;;;6.27;4.03;;;13.60;99.90;;;;;;5997078;23;20848;-76
2023/05/24 01:45:50;;;;;;;4.60;3.70;;;13.60;99.90;;;;;;6004400;23;20533;-76
2023/05/24 01:48:24;;;;;;;5.50;4.10;;;13.60;99.90;;;;;;6004433;23;20954;-76
2023/05/24 01:50:57;;;;;;;5.10;3.80;;;13.60;99.90;;;;;;6001479;23;20581;-76
2023/05/24 01:53:26;;;;;;;6.20;3.57;;;13.60;99.90;;;;;;6001725;23;20467;-76
2023/05/24 01:55:56;;;;;;;5.43;3.37;;;13.60;99.90;;;;;;6001997;23;21100;-77
2023/05/24 01:58:26;;;;;;;10.03;3.77;;;13.50;99.90;;;;;;5989256;23;20680;-77
2023/05/24 02:00:54;;;;;;;4.50;4.00;;;13.50;99.90;;;;;;6003278;23;20550;-76
2023/05/24 02:03:21;;;;;;;5.27;3.93;;;13.50;99.90;;;;;;6002251;23;20449;-77
2023/05/24 02:05:48;;;;;;;7.33;4.53;;;13.40;99.90;;;;;;6004102;23;20430;-76
2023/05/24 02:08:16;;;;;;;7.30;4.10;;;13.40;99.90;;;;;;6001334;23;20442;-76
2023/05/24 02:10:42;;;;;;;9.53;3.97;;;13.40;99.90;;;;;;6003748;23;20492;-76
2023/05/24 02:13:09;;;;;;;8.30;4.30;;;13.40;99.90;;;;;;6003377;23;20454;-76
2023/05/24 02:15:40;;;;;;;5.90;4.03;;;13.30;99.90;;;;;;5996886;23;20921;-76
2023/05/24 02:18:07;;;;;;;4.30;3.90;;;13.30;99.90;;;;;;5997473;23;20439;-76
2023/05/24 02:20:36;;;;;;;6.07;3.93;;;13.30;99.90;;;;;;6003881;23;20447;-76
2023/05/24 02:23:03;;;;;;;7.73;4.13;;;13.30;99.90;;;;;;5998548;23;20844;-76
2023/05/24 02:25:31;;;;;;;6.27;4.00;;;13.30;99.90;;;;;;5998481;23;20456;-76
2023/05/24 02:27:58;;;;;;;6.67;4.07;;;13.30;99.90;;;;;;5999103;23;20731;-76
2023/05/24 02:30:25;;;;;;;6.37;4.50;;;13.30;99.90;;;;;;6001344;23;20462;-76
2023/05/24 02:32:54;;;;;;;7.00;3.93;;;13.30;99.90;;;;;;6002106;23;20450;-76
2023/05/24 02:35:22;;;;;;;5.07;4.10;;;13.30;99.90;;;;;;5983169;23;20441;-77
2023/05/24 02:37:49;;;;;;;6.83;4.40;;;13.30;99.90;;;;;;6003796;23;20473;-76
2023/05/24 02:40:16;;;;;;;5.90;4.27;;;13.30;99.90;;;;;;6001845;23;20442;-76
2023/05/24 02:42:43;;;;;;;6.23;3.77;;;13.40;99.90;;;;;;6002392;23;20962;-76
2023/05/24 02:45:10;;;;;;;6.20;4.20;;;13.30;99.90;;;;;;6002118;23;20442;-76
2023/05/24 02:47:37;;;;;;;4.70;3.60;;;13.30;99.90;;;;;;6002396;23;20447;-76
2023/05/24 02:50:07;;;;;;;5.40;4.10;;;13.30;99.90;;;;;;5993265;23;20466;-76
2023/05/24 02:52:35;;;;;;;4.97;4.03;;;13.40;99.90;;;;;;6006375;23;20452;-76
2023/05/24 02:55:02;;;;;;;5.50;4.20;;;13.30;99.90;;;;;;6002056;23;20473;-76
2023/05/24 02:57:32;;;;;;;6.80;4.10;;;13.30;99.90;;;;;;6002110;23;21056;-76
2023/05/24 03:00:00;;;;;;;8.10;4.63;;;13.30;99.90;;;;;;6002685;23;20530;-76
2023/05/24 03:02:28;;;;;;;5.63;4.53;;;13.30;99.90;;;;;;6002557;23;20439;-76
2023/05/24 03:04:55;;;;;;;6.30;4.63;;;13.30;99.90;;;;;;5991057;23;20439;-76
2023/05/24 03:07:23;;;;;;;7.73;4.40;;;13.30;99.90;;;;;;5998525;23;21042;-77
2023/05/24 03:09:50;;;;;;;6.67;4.40;;;13.30;99.90;;;;;;6003581;23;20438;-75
2023/05/24 03:12:17;;;;;;;5.73;4.20;;;13.20;99.90;;;;;;6001298;23;20469;-76
2023/05/24 03:14:44;;;;;;;8.67;4.60;;;13.20;99.90;;;;;;6001418;23;20454;-76
2023/05/24 03:17:11;;;;;;;5.50;4.00;;;13.20;99.90;;;;;;6002194;23;20818;-76
2023/05/24 03:19:38;;;;;;;5.53;4.15;;;13.20;99.90;;;;;;5986508;23;20520;-76
2023/05/24 03:22:05;;;;;;;4.87;4.33;;;13.20;99.90;;;;;;6000663;23;20220;-77
2023/05/24 03:24:34;;;;;;;6.37;3.97;;;13.20;99.90;;;;;;6001952;23;20444;-77
2023/05/24 03:27:01;;;;;;;5.67;4.50;;;13.20;99.90;;;;;;6004039;23;20996;-76
2023/05/24 03:29:28;;;;;;;6.20;4.10;;;13.10;99.90;;;;;;6000604;23;20480;-76
2023/05/24 03:31:55;;;;;;;6.00;4.00;;;13.10;99.90;;;;;;5999831;23;20892;-76
2023/05/24 03:34:22;;;;;;;8.30;4.60;;;13.10;99.90;;;;;;6003090;23;20476;-76
2023/05/24 03:36:49;;;;;;;5.43;4.03;;;13.00;99.90;;;;;;5988699;23;20472;-76
2023/05/24 03:39:16;;;;;;;6.63;5.27;;;13.00;99.90;;;;;;5986864;23;20439;-77
2023/05/24 03:41:44;;;;;;;6.80;4.23;;;12.90;99.90;;;;;;5992723;23;20548;-77
2023/05/24 03:44:12;;;;;;;6.07;4.05;;;13.00;99.90;;;;;;6000279;23;20445;-77
2023/05/24 03:46:39;;;;;;;6.70;4.70;;;12.90;99.90;;;;;;5983543;23;20191;-78
2023/05/24 03:49:06;;;;;;;6.73;4.63;;;12.90;99.90;;;;;;6002177;23;20452;-77
2023/05/24 03:51:35;;;;;;;4.90;4.40;;;12.80;99.90;;;;;;6001633;23;20856;-77
2023/05/24 03:54:01;;;;;;;6.00;4.47;;;12.80;99.90;;;;;;6003712;23;20963;-78
2023/05/24 03:56:28;;;;;;;5.43;4.10;;;12.80;99.90;;;;;;5997745;23;20213;-77
2023/05/24 03:58:59;;;;;;;5.78;4.78;;;12.80;99.90;;;;;;6002242;23;20520;-77
2023/05/24 04:01:27;;;;;;;7.67;4.50;;;12.80;99.90;;;;;;5994378;23;20226;-78
2023/05/24 04:03:55;;;;;;;6.03;4.60;;;12.80;99.90;;;;;;5985176;23;20511;-77
2023/05/24 04:06:27;;;;;;;4.63;3.90;;;12.80;99.90;;;;;;6003698;23;20433;-78
2023/05/24 04:08:54;;;;;;;5.10;4.47;;;12.80;99.90;;;;;;6003180;23;20489;-78
2023/05/24 04:11:22;;;;;;;6.40;4.30;;;12.80;99.90;;;;;;6003191;23;20866;-79
2023/05/24 04:13:50;;;;;;;6.30;3.90;;;12.80;99.90;;;;;;6000523;23;20434;-79
2023/05/24 04:16:18;;;;;;;5.95;4.38;;;12.80;99.90;;;;;;6003263;23;20453;-79
2023/05/24 04:18:46;;;;;;;4.60;4.00;;;12.70;99.90;;;;;;5992374;23;20671;-79
2023/05/24 04:21:13;;;;;;;6.35;4.43;;;12.80;99.90;;;;;;5999644;23;20519;-79
2023/05/24 04:23:39;;;;;;;6.00;4.27;;;12.80;99.90;;;;;;6010848;23;20194;-77
2023/05/24 04:26:09;;;;;;;10.27;4.90;;;12.80;99.90;;;;;;5988515;23;20470;-78
2023/05/24 04:28:36;;;;;;;6.03;4.30;;;12.80;99.90;;;;;;5994808;23;20609;-82
2023/05/24 04:31:04;;;;;;;8.37;4.60;;;12.80;99.90;;;;;;5999267;23;20479;-77
2023/05/24 04:33:33;;;;;;;6.63;4.73;;;12.80;99.90;;;;;;5996086;23;20442;-87
2023/05/24 04:36:00;;;;;;;5.60;4.73;;;12.90;99.90;;;;;;5979706;23;20453;-86
2023/05/24 04:38:31;;;;;;;7.33;5.10;;;12.90;99.90;;;;;;5994951;23;20473;-87
2023/05/24 04:40:58;;;;;;;10.47;4.60;;;12.90;99.90;;;;;;5996317;23;20989;-87
2023/05/24 04:43:26;;;;;;;6.30;4.10;;;12.90;99.90;;;;;;6009026;23;20465;-73
2023/05/24 04:45:53;;;;;;;8.93;5.10;;;12.90;99.90;;;;;;5986124;23;20966;-75
2023/05/24 04:48:23;;;;;;;8.70;4.93;;;12.90;99.90;;;;;;5983814;23;20474;-81
2023/05/24 04:50:51;;;;;;;6.47;4.70;;;12.90;99.90;;;;;;5987134;23;20882;-75
2023/05/24 04:53:18;;;;;;;7.68;4.50;;;12.90;99.90;;;;;;5984275;23;20452;-75
2023/05/24 04:55:46;;;;;;;8.77;4.63;;;12.90;99.90;;;;;;6003048;23;20273;-75
2023/05/24 04:58:13;;;;;;;7.77;4.60;;;13.00;99.90;;;;;;6004058;23;20466;-75
2023/05/24 05:00:40;;;;;;;8.77;4.40;;;13.00;99.90;;;;;;5984207;23;20533;-75
2023/05/24 05:03:07;;;;;;;6.67;4.73;;;13.00;99.90;;;;;;6001618;23;20448;-75
2023/05/24 05:05:35;;;;;;;7.40;4.53;;;13.00;99.90;;;;;;5965460;23;20842;-75
2023/05/24 05:08:03;;;;;;;6.60;5.13;;;13.00;99.90;;;;;;5980885;23;20522;-75
2023/05/24 05:10:31;;;;;;;7.23;4.40;;;13.00;99.90;;;;;;5982528;23;20466;-75
2023/05/24 05:12:57;;;;;;;10.00;4.77;;;13.00;99.90;;;;;;6002589;23;20468;-75
2023/05/24 05:15:25;;;;;;;9.03;4.97;;;13.00;99.90;;;;;;5992227;23;20435;-75
2023/05/24 05:17:52;;;;;;;8.20;4.17;;;13.10;99.90;;;;;;5993662;23;20818;-75
2023/05/24 05:20:19;;;;;;;7.00;4.70;;;13.10;99.90;;;;;;5979591;23;20990;-75
2023/05/24 05:22:46;;;;;;;5.87;4.47;;;13.10;99.90;;;;;;5982230;23;20428;-75
2023/05/24 05:25:15;;;;;;;6.67;4.60;;;13.10;99.90;;;;;;5996305;23;20445;-75
2023/05/24 05:27:43;;;;;;;7.77;4.77;;;13.10;99.90;;;;;;6001476;23;20556;-75
2023/05/24 05:30:10;;;;;;;7.10;4.13;;;13.10;99.90;;;;;;5978451;23;20464;-75
2023/05/24 05:32:38;;;;;;;10.00;5.10;;;13.20;99.90;;;;;;5990981;23;20439;-75
2023/05/24 05:35:06;;;;;;;7.57;4.50;;;13.10;99.90;;;;;;6006315;23;20435;-75
2023/05/24 05:37:33;;;;;;;10.17;4.93;;;13.10;99.90;;;;;;6005886;23;20475;-75
2023/05/24 05:40:00;;;;;;;7.73;4.20;;;13.10;99.90;;;;;;5991343;23;20470;-75
2023/05/24 05:42:28;;;;;;;5.60;4.73;;;13.10;99.90;;;;;;6008038;23;20432;-75
2023/05/24 05:44:55;;;;;;;9.00;4.40;;;13.20;99.90;;;;;;6004584;23;20472;-75
2023/05/24 05:47:22;;;;;;;6.07;4.57;;;13.20;99.90;;;;;;5997638;23;20446;-75
2023/05/24 05:49:49;;;;;;;7.50;4.40;;;13.20;99.90;;;;;;5984884;23;20766;-75
2023/05/24 05:52:16;;;;;;;9.13;4.50;;;13.30;99.90;;;;;;5989579;23;20438;-75
2023/05/24 05:54:43;;;;;;;6.60;4.27;;;13.30;99.90;;;;;;5996140;23;20938;-75
2023/05/24 05:57:10;;;;;;;6.33;4.60;;;13.30;99.90;;;;;;5978175;23;20542;-75
2023/05/24 05:59:39;;;;;;;8.77;4.27;;;13.40;99.90;;;;;;5983515;23;20444;-75
2023/05/24 06:02:06;;;;;;;9.53;4.50;;;13.50;99.90;;;;;;5984215;23;20450;-75
2023/05/24 06:04:33;;;;;;;10.83;4.87;;;13.50;99.90;;;;;;5995932;23;20442;-75
2023/05/24 06:07:00;;;;;;;10.33;4.83;;;13.50;99.90;;;;;;5995202;23;20442;-75
2023/05/24 06:09:27;;;;;;;10.50;5.93;;;13.60;99.90;;;;;;5991720;23;20430;-75
2023/05/24 06:11:54;;;;;;;8.30;4.30;;;13.60;99.90;;;;;;5976028;23;20893;-75
2023/05/24 06:14:23;;;;;;;7.93;5.00;;;13.60;99.90;;;;;;5990709;23;20443;-75
2023/05/24 06:16:53;;;;;;;8.63;4.20;;;13.70;99.90;;;;;;5999430;23;20523;-75
2023/05/24 06:19:20;;;;;;;6.43;4.70;;;13.70;99.90;;;;;;6002859;23;20493;-75
2023/05/24 06:21:49;;;;;;;8.20;4.90;;;13.70;99.90;;;;;;5987862;23;20479;-75
2023/05/24 06:24:19;;;;;;;7.47;4.10;;;13.80;99.90;;;;;;5991001;23;20810;-75
2023/05/24 06:26:46;;;;;;;7.20;3.53;;;13.90;99.90;;;;;;5997656;23;20455;-75
2023/05/24 06:29:13;;;;;;;6.53;4.13;;;13.90;99.90;;;;;;6003442;23;20468;-75
2023/05/24 06:31:41;;;;;;;9.90;5.03;;;13.90;99.90;;;;;;5979594;23;20469;-75
2023/05/24 06:34:09;;;;;;;6.60;4.57;;;14.00;99.90;;;;;;5982275;23;20473;-75
2023/05/24 06:36:40;;;;;;;6.80;4.27;;;14.00;99.90;;;;;;5983727;23;20527;-75
2023/05/24 06:39:07;;;;;;;9.13;4.50;;;14.00;99.90;;;;;;5984182;23;21216;-75
2023/05/24 06:41:34;;;;;;;7.43;4.30;;;14.00;99.90;;;;;;6002532;23;20449;-75
2023/05/24 06:44:01;;;;;;;6.83;4.23;;;13.90;99.90;;;;;;5993006;23;20516;-75
2023/05/24 06:46:29;;;;;;;6.50;3.97;;;13.90;99.90;;;;;;5999331;23;20450;-75
2023/05/24 06:48:56;;;;;;;8.70;4.23;;;13.90;99.90;;;;;;6000672;23;20462;-75
2023/05/24 06:51:25;;;;;;;7.87;4.20;;;13.90;99.90;;;;;;5992264;23;20476;-75
2023/05/24 06:53:52;;;;;;;8.53;4.00;;;13.90;99.90;;;;;;6001761;23;20442;-75
2023/05/24 06:56:20;;;;;;;8.83;4.83;;;13.90;99.90;;;;;;5989402;23;20976;-75
2023/05/24 06:58:47;;;;;;;7.50;4.50;;;13.90;99.90;;;;;;5985702;23;20502;-75
2023/05/24 07:01:15;;;;;;;8.23;4.23;;;13.90;99.90;;;;;;6001547;23;20443;-75
2023/05/24 07:03:42;;;;;;;6.90;4.00;;;13.90;99.90;;;;;;6001089;23;20439;-75
2023/05/24 07:06:12;;;;;;;8.23;4.10;;;13.90;99.90;;;;;;6003132;23;20426;-75
2023/05/24 07:08:42;;;;;;;7.57;4.00;;;13.90;99.90;;;;;;6002162;23;20451;-75
2023/05/24 07:11:09;;;;;;;8.93;4.33;;;13.90;99.90;;;;;;6002297;23;20456;-75
2023/05/24 07:13:36;;;;;;;9.80;4.83;;;14.00;99.90;;;;;;5986413;23;20440;-75
2023/05/24 07:16:03;;;;;;;6.90;4.80;;;14.00;99.90;;;;;;5998052;23;20432;-75
2023/05/24 07:18:30;;;;;;;7.00;4.80;;;14.10;99.90;;;;;;6002949;23;21034;-75
2023/05/24 07:20:57;;;;;;;7.90;4.50;;;14.10;99.90;;;;;;6003094;23;20535;-75
2023/05/24 07:23:24;;;;;;;9.30;4.63;;;14.20;99.90;;;;;;6002231;23;20535;-74
2023/05/24 07:25:52;;;;;;;8.63;4.93;;;14.20;99.90;;;;;;5997636;23;20930;-75
2023/05/24 07:28:19;;;;;;;7.50;4.90;;;14.30;99.90;;;;;;6002394;23;20425;-75
2023/05/24 07:30:47;;;;;;;8.20;4.90;;;14.30;99.90;;;;;;6002699;23;20990;-75
2023/05/24 07:33:13;;;;;;;10.43;4.47;;;14.40;99.90;;;;;;6001766;23;20447;-75
2023/05/24 07:35:41;;;;;;;7.57;4.23;;;14.50;99.90;;;;;;6000230;23;20483;-75
2023/05/24 07:38:08;;;;;;;8.20;4.30;;;14.60;99.90;;;;;;5994128;23;20473;-75
2023/05/24 07:40:35;;;;;;;9.10;4.37;;;14.70;99.90;;;;;;5965126;23;20555;-75
2023/05/24 07:43:03;;;;;;;6.83;4.30;;;14.80;99.90;;;;;;5964781;23;20445;-75
2023/05/24 07:45:31;;;;;;;6.10;4.40;;;14.80;99.90;;;;;;5968874;23;20952;-75
2023/05/24 07:47:58;;;;;;;9.13;4.50;;;14.90;99.90;;;;;;5966459;23;20452;-77
2023/05/24 07:50:25;;;;;;;9.53;4.83;;;14.90;99.90;;;;;;5966043;23;20489;-75
2023/05/24 07:52:52;;;;;;;8.50;4.50;;;14.90;99.90;;;;;;5966679;23;20968;-75
2023/05/24 07:55:19;;;;;;;6.60;3.70;;;15.00;99.90;;;;;;5965077;23;20457;-75
2023/05/24 07:57:46;;;;;;;5.83;4.10;;;15.00;99.90;;;;;;5969995;23;20496;-75
2023/05/24 08:00:16;;;;;;;7.60;4.77;;;15.00;99.90;;;;;;5970462;23;20548;-75
2023/05/24 08:02:45;;;;;;;6.00;4.13;;;15.00;99.90;;;;;;5984930;23;20578;-75
2023/05/24 08:05:12;;;;;;;7.90;4.47;;;15.00;99.90;;;;;;5971726;23;20444;-75
2023/05/24 08:07:40;;;;;;;5.77;3.77;;;14.90;99.90;;;;;;5967699;23;21254;-75
2023/05/24 08:10:09;;;;;;;6.40;4.20;;;14.90;99.90;;;;;;5967641;23;20547;-75
2023/05/24 08:12:36;;;;;;;7.37;4.50;;;14.90;99.90;;;;;;5972595;23;20443;-75
2023/05/24 08:15:04;;;;;;;5.93;4.20;;;14.90;99.90;;;;;;5971414;23;20434;-75
2023/05/24 08:17:32;;;;;;;10.13;4.40;;;14.90;99.90;;;;;;5972253;23;20438;-75
2023/05/24 08:19:59;;;;;;;7.27;4.50;;;14.90;99.90;;;;;;5979460;23;20458;-75
2023/05/24 08:22:27;;;;;;;8.30;4.37;;;15.00;99.90;;;;;;5982497;23;20442;-75
2023/05/24 08:24:54;;;;;;;8.13;4.20;;;15.10;99.90;;;;;;5975982;23;20465;-75
2023/05/24 08:27:21;;;;;;;9.87;3.97;;;15.20;99.90;;;;;;5970520;23;20476;-75
2023/05/24 08:29:48;;;;;;;7.43;4.70;;;15.20;99.90;;;;;;5981515;23;20544;-74
2023/05/24 08:32:15;;;;;;;8.30;4.47;;;15.20;99.90;;;;;;5997970;23;20426;-75
2023/05/24 08:34:44;;;;;;;8.97;4.70;;;15.30;99.90;;;;;;6002934;23;20971;-75
2023/05/24 08:37:14;;;;;;;6.80;4.30;;;15.40;99.90;;;;;;5990660;23;20449;-75
2023/05/24 08:39:41;;;;;;;6.83;4.77;;;15.50;99.90;;;;;;5977493;23;20501;-75
2023/05/24 08:42:09;;;;;;;7.00;4.60;;;15.60;99.90;;;;;;5978279;23;20799;-75
2023/05/24 08:44:41;;;;;;;5.70;4.40;;;15.70;99.90;;;;;;5984046;23;21407;-75
2023/05/24 08:47:10;;;;;;;9.20;4.60;;;15.80;99.90;;;;;;5976988;23;20466;-75
2023/05/24 08:49:37;;;;;;;7.23;5.00;;;15.90;99.90;;;;;;5993700;23;20862;-74
2023/05/24 08:52:07;;;;;;;8.30;4.77;;;16.00;99.90;;;;;;6001093;23;20988;-75
2023/05/24 08:54:36;;;;;;;6.03;4.53;;;16.00;99.90;;;;;;6004850;23;20444;-74
2023/05/24 08:57:04;;;;;;;8.37;4.97;;;16.00;99.90;;;;;;5989009;23;20533;-74
2023/05/24 08:59:31;;;;;;;8.40;4.43;;;15.90;99.90;;;;;;5999187;23;20556;-76
2023/05/24 09:01:59;;;;;;;10.53;5.37;;;15.90;99.90;;;;;;5983148;23;20469;-74
2023/05/24 09:04:27;;;;;;;10.53;4.87;;;15.80;99.90;;;;;;6001716;23;20446;-75
2023/05/24 09:06:56;;;;;;;6.80;4.30;;;15.70;99.90;;;;;;6004307;23;20430;-74
2023/05/24 09:09:27;;;;;;;8.83;4.60;;;15.70;99.90;;;;;;5989661;23;21008;-74
2023/05/24 09:11:59;;;;;;;9.13;4.57;;;15.50;99.90;;;;;;6002968;23;20495;-75
2023/05/24 09:14:26;;;;;;;7.47;4.47;;;15.50;99.90;;;;;;6002792;23;20445;-74
2023/05/24 09:16:53;;;;;;;8.40;5.43;;;15.40;99.90;;;;;;6001400;23;20469;-75
2023/05/24 09:19:20;;;;;;;7.33;4.37;;;15.40;99.90;;;;;;5999881;23;20546;-74
2023/05/24 09:21:49;;;;;;;6.10;4.23;;;15.40;99.90;;;;;;5984768;23;20766;-75
2023/05/24 09:24:16;;;;;;;8.47;5.43;;;15.40;99.90;;;;;;5981570;23;20465;-75
2023/05/24 09:26:45;;;;;;;7.20;4.93;;;15.40;99.90;;;;;;5986953;23;20504;-75
2023/05/24 09:29:12;;;;;;;8.40;4.87;;;15.40;99.90;;;;;;6001211;23;20766;-75
2023/05/24 09:31:40;;;;;;;9.00;4.37;;;15.40;99.90;;;;;;5988692;23;20436;-75
2023/05/24 09:34:09;;;;;;;9.07;4.63;;;15.40;99.90;;;;;;5993036;23;20433;-74
2023/05/24 09:36:41;;;;;;;7.97;4.93;;;15.50;99.90;;;;;;5980133;23;20437;-74
2023/05/24 09:39:10;;;;;;;7.60;4.50;;;15.40;99.90;;;;;;5991211;23;20818;-75
2023/05/24 09:41:39;;;;;;;8.00;5.00;;;15.30;99.90;;;;;;5973705;23;20479;-75
2023/05/24 09:44:07;;;;;;;6.67;4.70;;;15.20;99.90;;;;;;5982126;23;20473;-74
2023/05/24 09:46:38;;;;;;;7.50;5.30;;;15.10;99.90;;;;;;5976082;23;20441;-75
2023/05/24 09:49:05;;;;;;;10.70;5.30;;;15.00;99.90;;;;;;5989843;23;20433;-74
2023/05/24 09:51:36;;;;;;;7.93;5.00;;;14.90;99.90;;;;;;5987915;23;20452;-74
2023/05/24 09:54:05;;;;;;;8.53;5.03;;;14.90;99.90;;;;;;5975992;23;21291;-75
2023/05/24 09:56:33;;;;;;;6.90;4.53;;;14.90;99.90;;;;;;5979919;23;20470;-74
2023/05/24 09:59:08;;;;;;;8.97;5.00;;;14.90;99.90;;;;;;5974980;23;20489;-74
2023/05/24 10:01:35;;;;;;;8.50;4.83;;;15.00;99.90;;;;;;6005018;23;20449;-74
2023/05/24 10:04:05;;;;;;;7.07;4.60;;;15.00;99.90;;;;;;5998106;23;20539;-74
2023/05/24 10:06:36;;;;;;;8.10;4.47;;;15.00;99.90;;;;;;5983059;23;20521;-75
2023/05/24 10:09:06;;;;;;;9.30;4.87;;;15.00;99.90;;;;;;5991688;23;20479;-75
2023/05/24 10:11:35;;;;;;;7.07;4.87;;;15.00;99.90;;;;;;5981530;23;20433;-74
2023/05/24 10:14:04;;;;;;;8.80;5.10;;;15.10;99.90;;;;;;5983778;23;20442;-74
2023/05/24 10:16:33;;;;;;;6.87;4.73;;;15.00;99.90;;;;;;5979395;23;21032;-74
2023/05/24 10:19:00;;;;;;;8.13;4.50;;;15.10;99.90;;;;;;6000247;23;20461;-74
2023/05/24 10:21:31;;;;;;;9.10;5.17;;;15.10;99.90;;;;;;5999860;23;20468;-74
2023/05/24 10:24:02;;;;;;;6.40;4.33;;;15.20;99.90;;;;;;5993985;23;20836;-74
2023/05/24 10:26:32;;;;;;;9.00;5.13;;;15.30;99.90;;;;;;5990745;23;20457;-73
2023/05/24 10:29:05;;;;;;;6.87;4.43;;;15.30;99.90;;;;;;5971094;23;20572;-74
2023/05/24 10:31:36;;;;;;;6.87;4.70;;;15.40;99.90;;;;;;5966485;23;20469;-74
2023/05/24 10:34:06;;;;;;;9.07;4.50;;;15.60;99.90;;;;;;5981405;23;20437;-74
2023/05/24 10:36:34;;;;;;;9.60;5.40;;;15.70;99.90;;;;;;5972263;23;20437;-76
2023/05/24 10:39:02;;;;;;;8.33;5.03;;;15.80;99.90;;;;;;5988085;23;20507;-74
2023/05/24 10:41:29;;;;;;;7.57;4.57;;;16.10;99.90;;;;;;5967980;23;20445;-74
2023/05/24 10:43:57;;;;;;;7.57;4.60;;;15.90;99.90;;;;;;5980036;23;20461;-75
2023/05/24 10:46:25;;;;;;;7.90;5.50;;;16.00;99.90;;;;;;5987615;23;20437;-75
2023/05/24 10:49:01;;;;;;;8.03;5.20;;;16.10;99.90;;;;;;6001976;23;21063;-75
2023/05/24 10:51:35;;;;;;;5.53;4.40;;;16.20;99.90;;;;;;6001209;23;20449;-75
2023/05/24 10:54:14;;;;;;;7.80;4.03;;;16.30;99.90;;;;;;5995125;23;20444;-75
2023/05/24 10:56:42;;;;;;;9.57;4.67;;;16.30;99.90;;;;;;5976458;23;20470;-75
2023/05/24 10:59:22;;;;;;;8.30;4.77;;;16.40;99.90;;;;;;5989228;23;20544;-75
2023/05/24 11:01:55;;;;;;;5.60;4.00;;;16.50;99.90;;;;;;5976422;23;20941;-75
2023/05/24 11:04:25;;;;;;;8.70;5.10;;;16.60;99.90;;;;;;5984031;23;20473;-75
2023/05/24 11:06:56;;;;;;;7.60;4.17;;;16.70;99.90;;;;;;5990153;23;20928;-75
2023/05/24 11:09:26;;;;;;;7.57;4.17;;;16.90;99.90;;;;;;5989933;23;20806;-75
2023/05/24 11:11:57;;;;;;;7.67;5.00;;;16.90;99.90;;;;;;5992117;23;20444;-75
2023/05/24 11:14:27;;;;;;;7.03;4.17;;;17.00;99.90;;;;;;5991531;23;20442;-75
2023/05/24 11:16:54;;;;;;;6.87;4.47;;;17.20;99.90;;;;;;5999677;23;20445;-75
2023/05/24 11:19:24;;;;;;;8.70;5.00;;;17.40;99.90;;;;;;5975773;23;20557;-74
2023/05/24 11:21:57;;;;;;;9.33;4.30;;;17.60;99.90;;;;;;5991340;23;20515;-75
2023/05/24 11:24:25;;;;;;;7.43;4.43;;;17.70;99.90;;;;;;5997000;23;20454;-75
2023/05/24 11:26:53;;;;;;;7.47;4.33;;;18.00;99.90;;;;;;5999895;23;20439;-75
2023/05/24 11:29:21;;;;;;;7.53;4.40;;;18.40;99.90;;;;;;5994324;23;20462;-75
2023/05/24 11:31:49;;;;;;;6.07;4.27;;;18.80;99.90;;;;;;5998722;23;20494;-76
2023/05/24 11:34:17;;;;;;;6.40;4.57;;;19.10;99.90;;;;;;5976933;23;20438;-75
2023/05/24 11:36:46;;;;;;;5.90;3.73;;;19.90;99.90;;;;;;5990683;23;20442;-75
2023/05/24 11:39:13;;;;;;;8.20;3.90;;;20.80;99.40;;;;;;6000511;23;20508;-75
2023/05/24 11:41:41;;;;;;;5.50;3.70;;;21.70;97.40;;;;;;5999248;23;20534;-75
2023/05/24 11:44:09;;;;;;;6.53;3.60;;;22.50;95.90;;;;;;5996547;23;20434;-75
2023/05/24 11:46:37;;;;;;;6.57;3.97;;;22.40;94.60;;;;;;5988785;23;20440;-75
2023/05/24 11:49:05;;;;;;;8.13;4.50;;;22.50;94.80;;;;;;5992492;23;20541;-75
2023/05/24 11:51:34;;;;;;;6.03;4.30;;;23.00;94.20;;;;;;5985069;23;20443;-75
2023/05/24 11:54:03;;;;;;;7.40;4.77;;;23.50;93.30;;;;;;5980782;23;20566;-75
2023/05/24 11:56:31;;;;;;;7.60;3.97;;;23.30;91.10;;;;;;5982720;23;20448;-75
2023/05/24 11:59:15;;;;;;;6.17;3.90;;;23.10;91.80;;;;;;5975251;23;20804;-75
2023/05/24 12:01:42;;;;;;;6.77;3.90;;;23.60;91.60;;;;;;5977743;23;20472;-75
2023/05/24 12:04:10;;;;;;;7.27;3.70;;;23.70;91.10;;;;;;5975823;23;20464;-76
2023/05/24 12:06:39;;;;;;;6.70;4.27;;;24.30;90.20;;;;;;5980770;23;20946;-75
2023/05/24 12:09:09;;;;;;;5.30;4.10;;;24.80;88.70;;;;;;5969659;23;20522;-77
2023/05/24 12:11:40;;;;;;;5.67;3.80;;;25.30;86.10;;;;;;5972368;23;20438;-76
2023/05/24 12:14:11;;;;;;;6.40;4.30;;;25.70;84.00;;;;;;5974838;23;20806;-76
2023/05/24 12:16:38;;;;;;;5.10;4.27;;;25.70;81.20;;;;;;5976577;23;21330;-76
2023/05/24 12:19:05;;;;;;;4.83;4.03;;;25.70;81.10;;;;;;5989636;23;20950;-76
2023/05/24 12:21:33;;;;;;;5.60;3.60;;;25.40;79.60;;;;;;5994292;23;20517;-76
2023/05/24 12:24:12;;;;;;;4.87;3.53;;;25.10;80.40;;;;;;5988010;23;20452;-76
2023/05/24 12:26:43;;;;;;;5.63;3.57;;;24.90;81.10;;;;;;5975908;23;20453;-77
2023/05/24 12:29:11;;;;;;;5.23;3.80;;;25.10;80.90;;;;;;5975653;23;20533;-77
2023/05/24 12:31:40;;;;;;;7.63;4.13;;;25.60;80.50;;;;;;6003294;23;20520;-76
2023/05/24 12:34:07;;;;;;;6.17;4.37;;;26.10;78.60;;;;;;5969201;23;20461;-76
2023/05/24 12:36:35;;;;;;;6.13;4.07;;;26.40;76.30;;;;;;5978929;23;20434;-77
2023/05/24 12:39:18;;;;;;;4.93;3.27;;;26.70;75.30;;;;;;5974055;23;20453;-76
2023/05/24 12:41:49;;;;;;;5.23;3.67;;;26.50;73.40;;;;;;5978470;23;21033;-76
2023/05/24 12:44:18;;;;;;;7.40;4.83;;;26.30;74.10;;;;;;5984762;23;20501;-76
2023/05/24 12:46:45;;;;;;;7.13;4.20;;;26.10;73.30;;;;;;6000370;23;20481;-76
2023/05/24 12:49:12;;;;;;;5.23;3.73;;;25.70;73.60;;;;;;5980352;23;20893;-75
2023/05/24 12:51:39;;;;;;;4.43;3.23;;;25.20;71.20;;;;;;5994134;23;20445;-84